Time;durP1;ratioP1;P1;durP2;ratioP2;P2;SDS_P1;SDS_P2;PMS_P1;PMS_P2;Temp;Humidity;BMP_temperature;BMP_pressure;BME280_temperature;BME280_humidity;BME280_pressure;Samples;Min_cycle;Max_cycle;Signal;HPM_P1;HPM_P2
2022/01/06 00:01:18;;;;;;;21.90;5.17;;;24.30;99.90;;;;;;4992148;28;20643;-68
2022/01/06 00:03:46;;;;;;;23.97;4.10;;;24.50;99.90;;;;;;4992732;28;20276;-68
2022/01/06 00:06:14;;;;;;;25.40;4.33;;;24.80;99.90;;;;;;4992507;28;20218;-67
2022/01/06 00:08:41;;;;;;;27.10;5.00;;;24.90;99.90;;;;;;4992462;28;20186;-68
2022/01/06 00:11:10;;;;;;;28.23;4.80;;;24.90;99.90;;;;;;4991726;28;20699;-68
2022/01/06 00:13:55;;;;;;;28.07;5.07;;;25.20;99.90;;;;;;4992126;28;20179;-68
2022/01/06 00:16:38;;;;;;;29.50;4.43;;;25.50;99.90;;;;;;4974480;28;20194;-67
2022/01/06 00:24:26;;;;;;;26.63;5.57;;;26.40;99.90;;;;;;4992750;28;20209;-68
2022/01/06 00:26:54;;;;;;;25.53;4.93;;;26.40;99.90;;;;;;4992572;28;20178;-69
2022/01/06 00:29:21;;;;;;;20.73;4.57;;;26.40;99.90;;;;;;4992201;28;20560;-69
2022/01/06 00:31:49;;;;;;;19.87;3.80;;;26.00;99.90;;;;;;4991925;28;20210;-69
2022/01/06 00:34:16;;;;;;;23.30;4.27;;;25.70;99.90;;;;;;4992052;28;20190;-70
2022/01/06 00:36:44;;;;;;;19.57;3.87;;;25.60;99.90;;;;;;4992311;28;20913;-69
2022/01/06 00:39:12;;;;;;;16.57;3.50;;;26.20;99.90;;;;;;4992496;28;20273;-70
2022/01/06 00:41:40;;;;;;;20.37;4.07;;;27.10;99.90;;;;;;4992267;28;20229;-70
2022/01/06 00:44:09;;;;;;;27.93;3.83;;;27.50;99.90;;;;;;4991009;28;20179;-69
2022/01/06 00:46:37;;;;;;;16.07;4.93;;;27.40;99.90;;;;;;4991395;28;20183;-68
2022/01/06 00:49:05;;;;;;;20.67;3.97;;;27.20;99.90;;;;;;4974585;28;20195;-68
2022/01/06 00:51:33;;;;;;;14.57;3.87;;;27.00;99.90;;;;;;4974635;28;20218;-69
2022/01/06 00:54:00;;;;;;;17.43;3.33;;;27.20;99.90;;;;;;4991942;28;20511;-68
2022/01/06 00:56:27;;;;;;;16.47;2.83;;;27.40;99.90;;;;;;4992272;28;20178;-68
2022/01/06 00:58:54;;;;;;;15.73;3.23;;;27.70;99.90;;;;;;4992105;28;20189;-67
2022/01/06 01:01:22;;;;;;;28.40;4.53;;;27.80;99.90;;;;;;4991920;28;20189;-66
2022/01/06 01:03:49;;;;;;;22.97;4.10;;;27.90;99.90;;;;;;4991550;28;20183;-69
2022/01/06 01:06:17;;;;;;;19.10;3.83;;;28.10;99.90;;;;;;4991907;28;20218;-68
2022/01/06 01:08:44;;;;;;;19.63;4.67;;;27.70;99.90;;;;;;4991720;28;20585;-67
2022/01/06 01:11:11;;;;;;;21.77;4.23;;;27.60;99.90;;;;;;4992136;28;20217;-67
2022/01/06 01:13:54;;;;;;;23.50;4.57;;;27.40;99.90;;;;;;4991605;28;20723;-68
2022/01/06 01:16:28;;;;;;;20.77;4.53;;;27.40;99.90;;;;;;4991642;28;20294;-68
2022/01/06 01:18:57;;;;;;;18.30;3.43;;;27.80;99.90;;;;;;4991643;28;20233;-68
2022/01/06 01:21:28;;;;;;;19.87;4.00;;;28.60;99.90;;;;;;4991793;28;20194;-69
2022/01/06 01:23:58;;;;;;;18.53;3.80;;;28.00;99.90;;;;;;4994991;28;20178;-68
2022/01/06 01:26:27;;;;;;;23.47;4.17;;;27.90;99.90;;;;;;4995905;28;20178;-68
2022/01/06 01:28:54;;;;;;;20.33;4.00;;;27.80;99.90;;;;;;4996125;28;20655;-68
2022/01/06 01:33:52;;;;;;;19.53;3.77;;;27.60;99.90;;;;;;4996167;28;20648;-66
2022/01/06 01:36:20;;;;;;;22.73;4.40;;;27.20;99.90;;;;;;4978245;28;20238;-69
2022/01/06 01:38:47;;;;;;;23.60;4.43;;;27.60;99.90;;;;;;4995833;28;20206;-69
2022/01/06 01:41:14;;;;;;;22.57;4.50;;;28.40;99.90;;;;;;4995453;28;20182;-69
2022/01/06 01:43:43;;;;;;;22.23;3.70;;;28.20;99.90;;;;;;4994996;28;20175;-69
2022/01/06 01:46:14;;;;;;;21.57;3.83;;;27.50;99.90;;;;;;4995771;28;20182;-69
2022/01/06 01:48:48;;;;;;;17.93;4.27;;;27.30;99.90;;;;;;4995788;28;20331;-68
2022/01/06 01:51:16;;;;;;;19.70;3.77;;;27.10;99.90;;;;;;4995936;28;20699;-68
2022/01/06 01:53:43;;;;;;;19.50;3.80;;;27.40;99.90;;;;;;4995783;28;20178;-68
2022/01/06 01:56:13;;;;;;;17.37;3.80;;;27.50;99.90;;;;;;4978442;28;20190;-69
2022/01/06 01:58:40;;;;;;;21.50;4.00;;;28.00;99.90;;;;;;4978633;28;20206;-70
2022/01/06 02:01:09;;;;;;;24.77;4.13;;;28.20;99.90;;;;;;4995365;28;20178;-70
2022/01/06 02:03:36;;;;;;;15.37;3.73;;;28.10;99.90;;;;;;4994830;28;20175;-69
2022/01/06 02:06:04;;;;;;;23.67;3.90;;;28.30;99.90;;;;;;4978213;28;20182;-70
2022/01/06 02:08:32;;;;;;;21.37;4.37;;;28.90;99.90;;;;;;4995075;28;20214;-71
2022/01/06 02:10:59;;;;;;;24.77;4.63;;;28.80;99.90;;;;;;4995512;28;20202;-69
2022/01/06 02:13:30;;;;;;;16.90;3.37;;;28.50;99.90;;;;;;4994880;28;20183;-69
2022/01/06 02:16:01;;;;;;;23.00;4.33;;;28.50;99.90;;;;;;4995563;28;20175;-71
2022/01/06 02:18:29;;;;;;;21.13;3.10;;;28.20;99.90;;;;;;4978131;28;20179;-70
2022/01/06 02:20:57;;;;;;;25.77;3.83;;;28.30;99.90;;;;;;4995205;28;20189;-70
2022/01/06 02:23:24;;;;;;;19.23;4.07;;;28.10;99.90;;;;;;4994705;28;20719;-67
2022/01/06 02:25:51;;;;;;;24.53;4.60;;;28.20;99.90;;;;;;4977658;28;20183;-70
2022/01/06 02:28:22;;;;;;;21.53;3.23;;;28.40;99.90;;;;;;4994894;28;20691;-68
2022/01/06 02:30:51;;;;;;;18.67;3.67;;;28.40;99.90;;;;;;4989460;28;20533;-69
2022/01/06 02:33:20;;;;;;;22.50;3.83;;;28.50;99.90;;;;;;4976929;28;20178;-69
2022/01/06 02:35:48;;;;;;;22.07;3.07;;;28.10;99.90;;;;;;4994102;28;20586;-70
2022/01/06 02:38:16;;;;;;;17.47;3.27;;;28.40;99.90;;;;;;4992861;28;20266;-67
2022/01/06 02:40:45;;;;;;;17.73;3.73;;;28.30;99.90;;;;;;4994190;28;20584;-68
2022/01/06 02:43:16;;;;;;;22.00;4.07;;;28.50;99.90;;;;;;4990676;28;20183;-68
2022/01/06 02:45:44;;;;;;;23.03;4.67;;;28.40;99.90;;;;;;4994601;28;20179;-68
2022/01/06 02:48:14;;;;;;;19.30;3.80;;;27.90;99.90;;;;;;4977095;28;20644;-68
2022/01/06 02:50:44;;;;;;;15.60;3.50;;;27.60;99.90;;;;;;4975661;28;20218;-68
2022/01/06 02:53:13;;;;;;;20.47;4.40;;;27.60;99.90;;;;;;4994614;28;20261;-67
2022/01/06 02:55:49;;;;;;;20.70;3.60;;;27.60;99.90;;;;;;4976590;28;20291;-67
2022/01/06 02:58:20;;;;;;;14.10;3.77;;;27.70;99.90;;;;;;4977902;28;20198;-68
2022/01/06 03:00:49;;;;;;;22.97;4.07;;;27.50;99.90;;;;;;4994872;28;20647;-68
2022/01/06 03:03:17;;;;;;;22.90;4.67;;;27.70;99.90;;;;;;4977387;28;20191;-68
2022/01/06 03:05:45;;;;;;;14.63;3.17;;;27.70;99.90;;;;;;4994591;28;20184;-69
2022/01/06 03:08:12;;;;;;;12.83;3.33;;;27.50;99.90;;;;;;4994060;28;20174;-68
2022/01/06 03:10:43;;;;;;;13.60;3.40;;;27.30;99.90;;;;;;4994410;28;20210;-68
2022/01/06 03:13:11;;;;;;;17.77;3.20;;;27.30;99.90;;;;;;4977035;28;20229;-68
2022/01/06 03:15:39;;;;;;;19.23;3.70;;;27.30;99.90;;;;;;4976866;28;20566;-67
2022/01/06 03:18:06;;;;;;;18.50;3.47;;;27.20;99.90;;;;;;4976555;28;20191;-67
2022/01/06 03:20:34;;;;;;;12.97;3.50;;;27.00;99.90;;;;;;4994168;28;20182;-66
2022/01/06 03:23:02;;;;;;;18.50;3.67;;;27.50;99.90;;;;;;4994329;28;20270;-67
2022/01/06 03:25:29;;;;;;;14.77;3.23;;;27.50;99.90;;;;;;4976812;28;20175;-67
2022/01/06 03:27:56;;;;;;;14.60;3.27;;;27.60;99.90;;;;;;4976518;28;20281;-68
2022/01/06 03:30:24;;;;;;;27.63;4.70;;;27.80;99.90;;;;;;4994330;28;20203;-68
2022/01/06 03:32:52;;;;;;;23.57;3.87;;;27.80;99.90;;;;;;4976291;28;20191;-68
2022/01/06 03:35:23;;;;;;;21.67;4.07;;;28.20;99.90;;;;;;4993665;28;20257;-68
2022/01/06 03:37:51;;;;;;;13.47;3.30;;;28.50;99.90;;;;;;4993921;28;20664;-70
2022/01/06 03:40:20;;;;;;;22.00;4.30;;;28.30;99.90;;;;;;4993689;28;20197;-68
2022/01/06 03:42:48;;;;;;;17.73;3.30;;;28.20;99.90;;;;;;4993835;28;20178;-68
2022/01/06 03:45:19;;;;;;;14.17;2.90;;;28.40;99.90;;;;;;4975221;28;20237;-68
2022/01/06 03:47:46;;;;;;;16.27;3.70;;;28.20;99.90;;;;;;4993277;28;20538;-69
2022/01/06 03:50:15;;;;;;;15.93;2.97;;;28.60;99.90;;;;;;4992784;28;20193;-68
2022/01/06 03:52:43;;;;;;;26.20;4.57;;;28.40;99.90;;;;;;4992897;28;20190;-68
2022/01/06 03:55:14;;;;;;;17.30;3.97;;;27.90;99.90;;;;;;4992879;28;20664;-70
2022/01/06 03:57:42;;;;;;;17.90;3.43;;;27.50;99.90;;;;;;4992930;28;20639;-69
2022/01/06 04:00:13;;;;;;;28.40;4.53;;;27.60;99.90;;;;;;4992744;28;20186;-69
2022/01/06 04:02:41;;;;;;;23.57;4.37;;;27.60;99.90;;;;;;4993147;28;20640;-68
2022/01/06 04:05:09;;;;;;;20.77;3.60;;;27.90;99.90;;;;;;4992829;28;20669;-69
2022/01/06 04:07:37;;;;;;;22.83;4.97;;;28.30;99.90;;;;;;4992932;28;20183;-68
2022/01/06 04:10:07;;;;;;;18.87;3.37;;;27.90;99.90;;;;;;4992812;28;20269;-69
2022/01/06 04:12:35;;;;;;;18.40;3.77;;;27.50;99.90;;;;;;4992758;28;20179;-69
2022/01/06 04:15:08;;;;;;;23.57;4.47;;;27.50;99.90;;;;;;4992830;28;20191;-69
2022/01/06 04:17:35;;;;;;;14.27;2.97;;;27.50;99.90;;;;;;4975746;28;20193;-69
2022/01/06 04:20:04;;;;;;;20.57;3.93;;;27.50;99.90;;;;;;4975759;28;20256;-69
2022/01/06 04:22:31;;;;;;;21.17;3.40;;;27.40;99.90;;;;;;4992844;28;20194;-68
2022/01/06 04:24:59;;;;;;;20.33;4.43;;;27.00;99.90;;;;;;4975345;28;20179;-67
2022/01/06 04:27:27;;;;;;;24.00;3.80;;;26.70;99.90;;;;;;4993207;28;20181;-67
2022/01/06 04:29:54;;;;;;;21.33;3.57;;;26.70;99.90;;;;;;4975599;28;20225;-67
2022/01/06 04:32:21;;;;;;;17.33;3.90;;;26.50;99.90;;;;;;4975020;28;20225;-67
2022/01/06 04:34:49;;;;;;;19.43;3.43;;;26.60;99.90;;;;;;4993116;28;20181;-67
2022/01/06 04:37:16;;;;;;;24.43;3.90;;;26.60;99.90;;;;;;4972478;28;20334;-67
2022/01/06 04:39:44;;;;;;;20.70;4.63;;;26.60;99.90;;;;;;4972849;28;20210;-66
2022/01/06 04:42:11;;;;;;;23.60;5.40;;;26.50;99.90;;;;;;4973328;28;20202;-66
2022/01/06 04:44:39;;;;;;;19.77;4.07;;;26.50;99.90;;;;;;4971984;28;20819;-67
2022/01/06 04:47:06;;;;;;;25.27;4.10;;;26.50;99.90;;;;;;4972087;28;20265;-67
2022/01/06 04:49:34;;;;;;;19.80;3.43;;;26.90;99.90;;;;;;4973195;28;20179;-67
2022/01/06 04:52:01;;;;;;;15.83;3.27;;;27.00;99.90;;;;;;4971817;28;20234;-68
2022/01/06 04:54:29;;;;;;;15.47;3.07;;;26.90;99.90;;;;;;4973289;28;20202;-67
2022/01/06 04:56:56;;;;;;;18.53;3.50;;;26.90;99.90;;;;;;4972046;28;20187;-69
2022/01/06 04:59:24;;;;;;;17.80;3.80;;;27.10;99.90;;;;;;4972177;28;20194;-68
2022/01/06 05:01:51;;;;;;;18.37;3.30;;;27.30;99.90;;;;;;4971895;28;20187;-67
2022/01/06 05:04:19;;;;;;;14.50;2.90;;;26.80;99.90;;;;;;4972598;28;20250;-67
2022/01/06 05:06:46;;;;;;;20.67;4.10;;;26.40;99.90;;;;;;4972019;28;20221;-67
2022/01/06 05:09:15;;;;;;;25.23;5.97;;;26.30;99.90;;;;;;4971912;28;20190;-67
2022/01/06 05:11:42;;;;;;;22.13;5.00;;;26.30;99.90;;;;;;4973119;28;20310;-66
2022/01/06 05:14:10;;;;;;;24.40;4.70;;;26.00;99.90;;;;;;4971402;28;20592;-69
2022/01/06 05:16:38;;;;;;;16.50;4.50;;;26.00;99.90;;;;;;4973120;28;20190;-67
2022/01/06 05:19:05;;;;;;;23.13;3.93;;;25.90;99.90;;;;;;4971255;28;20182;-67
2022/01/06 05:21:33;;;;;;;27.50;4.50;;;26.20;99.90;;;;;;4970871;28;20265;-68
2022/01/06 05:24:01;;;;;;;18.13;4.33;;;26.30;99.90;;;;;;4971692;28;20183;-68
2022/01/06 05:26:28;;;;;;;19.90;4.10;;;26.50;99.90;;;;;;4972882;28;20183;-69
2022/01/06 05:28:57;;;;;;;22.83;5.07;;;26.30;99.90;;;;;;4972827;28;20229;-69
2022/01/06 05:31:25;;;;;;;21.73;4.43;;;26.30;99.90;;;;;;4971358;28;20219;-69
2022/01/06 05:33:52;;;;;;;34.43;4.83;;;26.40;99.90;;;;;;4973067;28;20254;-68
2022/01/06 05:36:20;;;;;;;25.57;5.03;;;26.20;99.90;;;;;;4981323;28;20247;-67
2022/01/06 05:38:47;;;;;;;20.00;4.33;;;26.20;99.90;;;;;;4975021;28;20198;-68
2022/01/06 05:41:15;;;;;;;22.13;4.23;;;26.20;99.90;;;;;;4974619;28;20205;-70
2022/01/06 05:43:42;;;;;;;30.13;5.30;;;26.20;99.90;;;;;;4974894;28;20182;-68
2022/01/06 05:46:09;;;;;;;25.47;4.80;;;26.30;99.90;;;;;;4991936;28;20183;-68
2022/01/06 05:48:37;;;;;;;34.37;4.80;;;26.30;99.90;;;;;;4992246;28;20615;-68
2022/01/06 05:51:04;;;;;;;24.63;4.80;;;26.10;99.90;;;;;;4991757;28;20706;-68
2022/01/06 05:53:32;;;;;;;24.67;4.57;;;25.80;99.90;;;;;;4992292;28;20206;-68
2022/01/06 05:55:59;;;;;;;26.93;4.53;;;25.50;99.90;;;;;;4991890;28;20186;-69
2022/01/06 05:58:27;;;;;;;21.37;4.23;;;24.90;99.90;;;;;;4991815;28;20186;-67
2022/01/06 06:00:54;;;;;;;19.07;3.50;;;24.50;99.90;;;;;;4974527;28;20645;-69
2022/01/06 06:03:22;;;;;;;21.80;3.80;;;24.40;99.90;;;;;;4974288;28;20178;-67
2022/01/06 06:05:50;;;;;;;28.83;4.53;;;24.60;99.90;;;;;;4992069;28;20265;-70
2022/01/06 06:08:17;;;;;;;15.77;3.67;;;24.60;99.90;;;;;;4992325;28;20186;-68
2022/01/06 06:10:45;;;;;;;17.17;3.07;;;24.80;99.90;;;;;;4977842;28;20217;-67
2022/01/06 06:13:12;;;;;;;29.80;4.93;;;24.80;99.90;;;;;;4978014;28;20224;-67
2022/01/06 06:15:40;;;;;;;25.30;4.23;;;24.90;99.90;;;;;;4977648;28;20186;-68
2022/01/06 06:18:12;;;;;;;24.40;3.90;;;25.20;99.90;;;;;;4995295;28;20193;-68
2022/01/06 06:20:40;;;;;;;18.70;4.13;;;25.20;99.90;;;;;;4977854;28;20193;-68
2022/01/06 06:23:08;;;;;;;18.50;4.10;;;25.40;99.90;;;;;;4978157;28;20236;-69
2022/01/06 06:25:36;;;;;;;22.43;4.83;;;25.60;99.90;;;;;;4977928;28;20191;-69
2022/01/06 06:28:04;;;;;;;21.37;4.00;;;25.70;99.90;;;;;;4995024;28;20245;-67
2022/01/06 06:30:31;;;;;;;28.60;4.13;;;25.80;99.90;;;;;;4977449;28;20220;-68
2022/01/06 06:33:01;;;;;;;25.23;4.50;;;26.00;99.90;;;;;;4995300;28;20178;-67
2022/01/06 06:35:29;;;;;;;29.73;4.87;;;26.10;99.90;;;;;;4994874;28;20574;-67
2022/01/06 06:37:57;;;;;;;27.67;4.63;;;26.00;99.90;;;;;;4977476;28;20290;-67
2022/01/06 06:40:25;;;;;;;17.97;4.37;;;25.90;99.90;;;;;;4994775;28;20191;-67
2022/01/06 06:42:52;;;;;;;28.53;4.97;;;25.80;99.90;;;;;;4977664;28;20193;-67
2022/01/06 06:45:22;;;;;;;19.10;4.00;;;25.70;99.90;;;;;;4977655;28;20576;-68
2022/01/06 06:47:50;;;;;;;21.43;3.33;;;25.70;99.90;;;;;;4994940;28;20190;-67
2022/01/06 06:50:18;;;;;;;28.50;5.47;;;25.60;99.90;;;;;;4994260;28;20190;-66
2022/01/06 06:52:45;;;;;;;28.83;4.37;;;25.60;99.90;;;;;;4977584;28;20196;-69
2022/01/06 06:55:14;;;;;;;19.60;4.80;;;25.60;99.90;;;;;;4977156;28;20277;-67
2022/01/06 06:57:42;;;;;;;19.60;4.50;;;25.60;99.90;;;;;;4977188;28;20190;-66
2022/01/06 07:00:11;;;;;;;22.83;4.20;;;25.50;99.90;;;;;;4994107;28;20182;-68
2022/01/06 07:02:38;;;;;;;27.20;3.93;;;25.50;99.90;;;;;;4994587;28;20183;-68
2022/01/06 07:05:06;;;;;;;22.53;3.83;;;25.50;99.90;;;;;;4977103;28;20194;-67
2022/01/06 07:07:34;;;;;;;20.73;4.30;;;25.40;99.90;;;;;;4994456;28;20209;-67
2022/01/06 07:10:03;;;;;;;28.30;4.67;;;25.40;99.90;;;;;;4994279;28;20186;-69
2022/01/06 07:12:31;;;;;;;29.80;5.13;;;25.50;99.90;;;;;;4976986;28;20309;-68
2022/01/06 07:15:02;;;;;;;21.33;3.90;;;25.40;99.90;;;;;;4976617;28;20182;-67
2022/01/06 07:17:29;;;;;;;27.53;4.27;;;25.40;99.90;;;;;;4976832;28;20673;-69
2022/01/06 07:19:57;;;;;;;25.50;4.50;;;25.40;99.90;;;;;;4993064;28;20179;-68
2022/01/06 07:22:25;;;;;;;27.33;4.20;;;25.40;99.90;;;;;;4994031;28;20190;-68
2022/01/06 07:24:53;;;;;;;22.47;4.43;;;25.30;99.90;;;;;;4993556;28;20274;-67
2022/01/06 07:27:21;;;;;;;27.23;5.30;;;25.30;99.90;;;;;;4960884;28;20187;-67
2022/01/06 07:29:49;;;;;;;28.47;4.83;;;25.40;99.90;;;;;;4976333;28;20232;-67
2022/01/06 07:32:17;;;;;;;20.27;4.07;;;25.30;99.90;;;;;;4993888;28;20221;-68
2022/01/06 07:34:45;;;;;;;28.80;4.57;;;25.30;99.90;;;;;;4993700;28;20183;-67
2022/01/06 07:37:12;;;;;;;24.43;5.13;;;25.20;99.90;;;;;;4973047;28;20246;-68
2022/01/06 07:39:40;;;;;;;21.67;3.73;;;25.10;99.90;;;;;;4972709;28;20606;-66
2022/01/06 07:42:09;;;;;;;22.00;4.03;;;25.10;99.90;;;;;;4973479;28;20186;-68
2022/01/06 07:44:36;;;;;;;26.10;4.17;;;25.10;99.90;;;;;;4974222;28;20191;-67
2022/01/06 07:47:05;;;;;;;25.07;5.30;;;25.20;99.90;;;;;;4974064;28;20222;-69
2022/01/06 07:49:32;;;;;;;29.33;4.60;;;25.20;99.90;;;;;;4973461;28;20186;-69
2022/01/06 07:52:00;;;;;;;23.73;4.40;;;25.20;99.90;;;;;;4972820;28;20246;-70
2022/01/06 07:54:28;;;;;;;26.50;4.60;;;25.20;99.90;;;;;;4972751;28;20562;-69
2022/01/06 07:56:56;;;;;;;28.17;4.60;;;25.10;99.90;;;;;;4974068;28;20633;-68
2022/01/06 07:59:24;;;;;;;22.27;4.13;;;25.10;99.90;;;;;;4973831;28;20191;-68
2022/01/06 08:01:52;;;;;;;25.63;4.53;;;25.00;99.90;;;;;;4973942;28;20214;-69
2022/01/06 08:04:20;;;;;;;26.43;4.33;;;25.00;99.90;;;;;;4974098;28;20183;-68
2022/01/06 08:06:50;;;;;;;24.80;4.40;;;25.00;99.90;;;;;;4973962;28;20183;-69
2022/01/06 08:09:18;;;;;;;22.10;4.63;;;25.00;99.90;;;;;;4973861;28;20175;-69
2022/01/06 08:11:46;;;;;;;32.73;5.50;;;25.10;99.90;;;;;;4973834;28;20215;-70
2022/01/06 08:14:14;;;;;;;18.33;3.33;;;25.10;99.90;;;;;;4973724;28;20171;-68
2022/01/06 08:16:42;;;;;;;27.63;4.03;;;25.00;99.90;;;;;;4972495;28;20547;-69
2022/01/06 08:19:10;;;;;;;25.20;4.47;;;25.00;99.90;;;;;;4972412;28;20179;-69
2022/01/06 08:21:38;;;;;;;31.20;4.80;;;24.90;99.90;;;;;;4973688;28;20183;-68
2022/01/06 08:24:06;;;;;;;26.60;4.70;;;24.90;99.90;;;;;;4953264;29;20195;-68
2022/01/06 08:26:34;;;;;;;29.70;5.07;;;24.90;99.90;;;;;;4954467;28;20183;-68
2022/01/06 08:29:02;;;;;;;28.63;4.67;;;24.90;99.90;;;;;;4956447;28;20585;-69
2022/01/06 08:31:30;;;;;;;23.27;4.43;;;24.90;99.90;;;;;;4973182;28;20218;-68
2022/01/06 08:33:57;;;;;;;30.47;5.13;;;24.90;99.90;;;;;;4973324;28;20170;-68
2022/01/06 08:36:25;;;;;;;23.60;4.97;;;24.90;99.90;;;;;;4982655;28;20301;-68
2022/01/06 08:38:53;;;;;;;25.50;4.23;;;24.80;99.90;;;;;;4992462;28;20273;-68
2022/01/06 08:41:21;;;;;;;32.23;4.87;;;24.80;99.90;;;;;;4992507;28;20186;-68
2022/01/06 08:43:49;;;;;;;16.40;3.57;;;24.70;99.90;;;;;;4992616;28;20181;-68
2022/01/06 08:46:16;;;;;;;27.10;4.60;;;24.70;99.90;;;;;;4992530;28;20217;-69
2022/01/06 08:48:44;;;;;;;27.47;4.43;;;24.60;99.90;;;;;;4992401;28;20193;-69
2022/01/06 08:51:12;;;;;;;33.30;5.10;;;24.60;99.90;;;;;;4992503;28;20218;-69
2022/01/06 08:53:40;;;;;;;29.93;4.93;;;24.60;99.90;;;;;;4975376;28;20186;-68
2022/01/06 08:56:08;;;;;;;29.33;5.20;;;24.60;99.90;;;;;;4993919;28;20198;-68
2022/01/06 08:58:36;;;;;;;23.27;4.60;;;24.60;99.90;;;;;;4976707;28;20187;-68
2022/01/06 09:01:03;;;;;;;23.83;4.33;;;24.50;99.90;;;;;;4992655;28;20285;-69
2022/01/06 09:03:31;;;;;;;28.47;4.40;;;24.50;99.90;;;;;;4976711;28;20190;-68
2022/01/06 09:06:00;;;;;;;27.17;5.20;;;24.50;99.90;;;;;;4994134;28;20204;-68
2022/01/06 09:08:28;;;;;;;26.77;4.00;;;24.40;99.90;;;;;;4993864;28;20182;-68
2022/01/06 09:10:55;;;;;;;30.33;5.63;;;24.40;99.90;;;;;;4993365;28;20349;-68
2022/01/06 09:13:23;;;;;;;31.07;4.93;;;24.40;99.90;;;;;;4994130;28;20182;-68
2022/01/06 09:15:51;;;;;;;32.73;5.57;;;24.40;99.90;;;;;;4976035;28;20616;-68
2022/01/06 09:18:19;;;;;;;29.27;4.80;;;24.40;99.90;;;;;;4976239;28;20639;-68
2022/01/06 09:20:47;;;;;;;27.20;4.77;;;24.40;99.90;;;;;;4993840;28;20655;-68
2022/01/06 09:23:15;;;;;;;21.73;4.67;;;24.40;99.90;;;;;;4976190;28;20196;-68
2022/01/06 09:25:43;;;;;;;24.80;4.07;;;24.40;99.90;;;;;;4976229;28;20632;-68
2022/01/06 09:28:11;;;;;;;28.23;3.87;;;24.40;99.90;;;;;;4993731;28;20195;-67
2022/01/06 09:30:39;;;;;;;24.20;5.07;;;24.40;99.90;;;;;;4994388;28;20206;-67
2022/01/06 09:33:07;;;;;;;23.47;5.23;;;24.40;99.90;;;;;;4976869;28;20183;-68
2022/01/06 09:35:34;;;;;;;28.73;4.57;;;24.30;99.90;;;;;;4975972;28;20190;-67
2022/01/06 09:38:03;;;;;;;28.10;4.87;;;24.30;99.90;;;;;;4993750;28;20636;-68
2022/01/06 09:40:32;;;;;;;26.57;5.97;;;24.30;99.90;;;;;;4993822;28;20245;-67
2022/01/06 09:43:00;;;;;;;29.17;5.10;;;24.30;99.90;;;;;;4976266;28;20190;-68
2022/01/06 09:45:28;;;;;;;28.17;4.73;;;24.30;99.90;;;;;;4997927;28;20601;-66
2022/01/06 09:47:57;;;;;;;27.40;4.37;;;24.30;99.90;;;;;;4979739;28;20270;-68
2022/01/06 09:50:24;;;;;;;29.10;5.43;;;24.20;99.90;;;;;;4996765;28;20206;-68
2022/01/06 09:52:53;;;;;;;25.47;5.00;;;24.20;99.90;;;;;;4996451;28;20189;-68
2022/01/06 09:55:21;;;;;;;28.23;4.23;;;24.20;99.90;;;;;;4997002;28;20182;-67
2022/01/06 09:58:00;;;;;;;25.00;4.50;;;24.20;99.90;;;;;;4997056;28;20193;-68
2022/01/06 10:00:30;;;;;;;23.43;4.67;;;24.20;99.90;;;;;;4996781;28;20179;-68
2022/01/06 10:03:03;;;;;;;19.10;4.30;;;24.20;99.90;;;;;;4996935;28;20178;-67
2022/01/06 10:05:50;;;;;;;29.20;4.83;;;24.20;99.90;;;;;;4996140;28;20187;-67
2022/01/06 10:08:28;;;;;;;34.47;5.10;;;24.20;99.90;;;;;;4996817;28;20192;-68
2022/01/06 10:11:38;;;;;;;26.53;4.50;;;24.20;99.90;;;;;;4996641;28;20224;-68
2022/01/06 10:14:10;;;;;;;26.67;4.27;;;24.10;99.90;;;;;;4968266;28;20214;-68
2022/01/06 10:16:46;;;;;;;34.30;5.57;;;24.10;99.90;;;;;;4996459;28;20190;-68
2022/01/06 10:19:15;;;;;;;20.23;5.40;;;24.10;99.90;;;;;;4996592;28;20276;-68
2022/01/06 10:21:45;;;;;;;21.17;4.77;;;24.10;99.90;;;;;;4997186;28;20628;-68
2022/01/06 10:24:25;;;;;;;23.17;4.27;;;24.10;99.90;;;;;;4996571;28;20185;-65
2022/01/06 10:27:06;;;;;;;26.30;4.93;;;24.10;99.90;;;;;;4996527;28;20174;-67
2022/01/06 10:29:54;;;;;;;34.77;4.87;;;24.10;99.90;;;;;;4996605;28;20657;-67
2022/01/06 10:32:25;;;;;;;31.47;4.87;;;24.10;99.90;;;;;;4996475;28;20312;-66
2022/01/06 10:34:55;;;;;;;32.10;5.10;;;24.10;99.90;;;;;;4996352;28;20270;-66
2022/01/06 10:37:26;;;;;;;31.73;6.00;;;24.10;99.90;;;;;;4978797;28;20336;-67
2022/01/06 10:40:00;;;;;;;29.33;5.30;;;24.10;99.90;;;;;;4996345;28;20231;-67
2022/01/06 10:42:34;;;;;;;40.87;4.87;;;24.10;99.90;;;;;;4996259;28;20195;-67
2022/01/06 10:45:10;;;;;;;23.40;5.17;;;24.10;99.90;;;;;;4996269;28;20189;-67
2022/01/06 10:47:47;;;;;;;21.30;4.47;;;24.10;99.90;;;;;;4996131;28;20602;-66
2022/01/06 10:50:18;;;;;;;26.50;5.20;;;24.00;99.90;;;;;;4978854;28;20551;-66
2022/01/06 10:53:10;;;;;;;17.10;2.90;;;24.10;99.90;;;;;;4996235;28;20225;-66
2022/01/06 10:55:43;;;;;;;20.50;4.13;;;24.00;99.90;;;;;;4995982;28;20232;-67
2022/01/06 10:58:18;;;;;;;30.73;4.77;;;24.00;99.90;;;;;;4996076;28;20688;-67
2022/01/06 11:00:49;;;;;;;21.30;4.80;;;23.90;99.90;;;;;;4995864;28;20263;-66
2022/01/06 11:03:24;;;;;;;20.57;3.40;;;23.90;99.90;;;;;;4995666;28;20343;-67
2022/01/06 11:05:54;;;;;;;21.43;4.20;;;23.90;99.90;;;;;;4995816;28;20188;-66
2022/01/06 11:08:25;;;;;;;26.47;4.43;;;23.70;99.90;;;;;;4995991;28;20183;-67
2022/01/06 11:13:45;;;;;;;23.20;4.30;;;23.10;99.90;;;;;;4995627;28;20192;-66
2022/01/06 11:16:16;;;;;;;27.57;4.77;;;23.00;99.90;;;;;;4995563;28;20181;-66
2022/01/06 11:18:50;;;;;;;25.83;4.40;;;22.90;99.90;;;;;;4995640;28;20178;-66
2022/01/06 11:21:23;;;;;;;29.83;4.20;;;22.90;99.90;;;;;;4995740;28;20186;-67
2022/01/06 11:24:09;;;;;;;24.03;4.03;;;22.90;99.90;;;;;;4995618;28;20297;-66
2022/01/06 11:26:37;;;;;;;23.63;3.77;;;22.90;99.90;;;;;;4995422;28;20194;-67
2022/01/06 11:29:05;;;;;;;23.97;4.17;;;23.00;99.90;;;;;;4995549;28;20189;-67
2022/01/06 11:31:42;;;;;;;26.10;4.57;;;23.00;99.90;;;;;;4995277;28;20219;-66
2022/01/06 11:34:20;;;;;;;36.97;5.30;;;23.00;99.90;;;;;;4995250;28;20328;-67
2022/01/06 11:36:50;;;;;;;23.30;4.43;;;23.10;99.90;;;;;;4995180;28;20741;-67
2022/01/06 11:39:31;;;;;;;28.17;5.30;;;23.00;99.90;;;;;;4995458;28;20215;-66
2022/01/06 11:42:00;;;;;;;26.03;4.57;;;23.10;99.90;;;;;;4995494;28;20237;-67
2022/01/06 11:44:31;;;;;;;22.37;4.40;;;23.10;99.90;;;;;;4995488;28;20259;-66
2022/01/06 11:47:03;;;;;;;27.07;4.57;;;23.10;99.90;;;;;;4994872;28;20179;-67
2022/01/06 11:49:36;;;;;;;26.73;4.93;;;23.10;99.90;;;;;;4995649;28;20254;-66
2022/01/06 11:52:17;;;;;;;24.90;4.53;;;23.10;99.90;;;;;;4994999;28;20223;-66
2022/01/06 11:54:48;;;;;;;24.47;5.00;;;23.10;99.90;;;;;;4995087;28;20703;-66
2022/01/06 11:57:26;;;;;;;38.67;4.90;;;23.20;99.90;;;;;;4995000;28;20606;-66
2022/01/06 11:59:54;;;;;;;22.63;4.33;;;23.20;99.90;;;;;;4995184;28;20202;-67
2022/01/06 12:02:23;;;;;;;29.40;4.70;;;23.20;99.90;;;;;;4996320;28;20188;-67
2022/01/06 12:05:00;;;;;;;26.77;4.73;;;23.20;99.90;;;;;;4995391;28;20185;-67
2022/01/06 12:07:28;;;;;;;23.40;4.03;;;23.30;99.90;;;;;;4994452;28;20236;-67
2022/01/06 12:10:09;;;;;;;26.90;4.77;;;23.30;99.90;;;;;;4994928;28;20171;-67
2022/01/06 12:12:40;;;;;;;33.20;4.37;;;23.20;99.90;;;;;;4995467;28;20566;-66
2022/01/06 12:15:17;;;;;;;31.13;4.13;;;23.30;99.90;;;;;;4994834;28;20190;-66
2022/01/06 12:17:52;;;;;;;31.07;4.53;;;23.30;99.90;;;;;;4976564;28;20547;-66
2022/01/06 12:20:25;;;;;;;32.30;4.80;;;23.30;99.90;;;;;;4994305;28;20181;-67
2022/01/06 12:22:53;;;;;;;36.13;5.30;;;23.40;99.90;;;;;;4994267;28;20689;-67
2022/01/06 12:25:28;;;;;;;22.87;4.87;;;23.40;99.90;;;;;;4993113;28;20283;-67
2022/01/06 12:27:57;;;;;;;33.00;4.93;;;23.40;99.90;;;;;;4994498;28;20263;-67
2022/01/06 12:30:28;;;;;;;26.63;4.57;;;23.30;99.90;;;;;;4994501;28;20181;-66
2022/01/06 12:33:06;;;;;;;29.13;5.63;;;23.30;99.90;;;;;;4993762;28;20179;-67
2022/01/06 12:35:52;;;;;;;32.67;4.50;;;23.30;99.90;;;;;;4993552;28;20190;-67
2022/01/06 12:38:40;;;;;;;32.67;5.30;;;23.30;99.90;;;;;;4994105;28;20209;-66
2022/01/06 12:41:08;;;;;;;35.97;6.20;;;23.30;99.90;;;;;;4994058;28;20191;-66
2022/01/06 12:43:39;;;;;;;23.23;4.73;;;23.30;99.90;;;;;;4993776;28;20274;-67
2022/01/06 12:46:08;;;;;;;30.20;5.43;;;23.40;99.90;;;;;;4994340;28;20551;-66
2022/01/06 12:48:45;;;;;;;26.90;4.50;;;23.40;99.90;;;;;;4994102;28;20683;-66
2022/01/06 12:51:18;;;;;;;24.57;4.30;;;23.50;99.90;;;;;;4993817;28;20214;-67
2022/01/06 12:53:49;;;;;;;33.87;6.47;;;23.50;99.90;;;;;;4993724;28;20192;-67
2022/01/06 12:56:32;;;;;;;29.33;4.90;;;23.50;99.90;;;;;;4993938;28;20600;-67
2022/01/06 12:59:01;;;;;;;27.80;5.20;;;23.50;99.90;;;;;;4993969;28;20175;-67